Time;durP1;ratioP1;P1;durP2;ratioP2;P2;SDS_P1;SDS_P2;PMS_P1;PMS_P2;Temp;Humidity;BMP_temperature;BMP_pressure;BME280_temperature;BME280_humidity;BME280_pressure;Samples;Min_cycle;Max_cycle;Signal;HPM_P1;HPM_P2
2021/07/24 00:01:11;;;;;;;39.10;36.37;;;20.60;78.20;;;;;;5044999;28;20847;-68
2021/07/24 00:03:38;;;;;;;39.60;36.90;;;20.50;78.60;;;;;;5046091;28;20604;-68
2021/07/24 00:06:05;;;;;;;40.13;37.13;;;20.50;78.50;;;;;;5044351;28;20477;-68
2021/07/24 00:08:32;;;;;;;41.07;38.00;;;20.50;78.60;;;;;;5049597;28;20455;-68
2021/07/24 00:11:04;;;;;;;39.70;36.77;;;20.50;78.50;;;;;;5052821;28;21226;-68
2021/07/24 00:13:32;;;;;;;39.03;36.43;;;20.50;78.40;;;;;;5043315;28;20463;-68
2021/07/24 00:15:59;;;;;;;40.57;37.70;;;20.50;78.30;;;;;;5055209;28;20909;-68
2021/07/24 00:18:26;;;;;;;39.73;36.70;;;20.50;78.60;;;;;;5047316;28;20454;-68
2021/07/24 00:20:53;;;;;;;39.27;36.37;;;20.50;78.50;;;;;;5042958;28;20553;-68
2021/07/24 00:23:20;;;;;;;38.47;35.87;;;20.50;78.60;;;;;;5048664;28;20470;-68
2021/07/24 00:25:47;;;;;;;39.13;36.50;;;20.40;78.70;;;;;;5044460;28;20497;-70
2021/07/24 00:28:14;;;;;;;40.47;37.60;;;20.40;78.90;;;;;;5046219;28;21458;-70
2021/07/24 00:30:43;;;;;;;40.63;37.43;;;20.40;78.70;;;;;;5046564;28;20960;-70
2021/07/24 00:33:11;;;;;;;40.03;37.13;;;20.40;78.60;;;;;;5044261;28;20448;-70
2021/07/24 00:35:38;;;;;;;38.43;35.83;;;20.40;78.70;;;;;;5049052;28;20474;-69
2021/07/24 00:38:07;;;;;;;39.60;36.80;;;20.40;78.70;;;;;;5045304;28;20981;-70
2021/07/24 00:40:39;;;;;;;39.10;36.40;;;20.40;78.60;;;;;;5036262;28;20466;-71
2021/07/24 00:43:10;;;;;;;41.33;38.07;;;20.40;78.80;;;;;;5037414;28;20476;-70
2021/07/24 00:45:45;;;;;;;37.97;35.27;;;20.40;78.70;;;;;;5037418;28;20467;-69
2021/07/24 00:48:18;;;;;;;39.43;36.43;;;20.40;78.90;;;;;;5047429;28;20488;-69
2021/07/24 00:50:47;;;;;;;39.50;36.70;;;20.40;79.10;;;;;;5041177;28;20521;-68
2021/07/24 00:53:20;;;;;;;38.70;36.10;;;20.40;79.10;;;;;;5043618;28;20454;-68
2021/07/24 00:55:48;;;;;;;38.03;35.33;;;20.40;79.00;;;;;;5049872;28;20486;-68
2021/07/24 00:58:26;;;;;;;38.73;36.03;;;20.50;78.50;;;;;;5049684;28;20469;-68
2021/07/24 01:00:55;;;;;;;37.73;35.07;;;20.40;78.90;;;;;;5047730;28;20453;-68
2021/07/24 01:03:23;;;;;;;38.80;36.10;;;20.20;79.60;;;;;;5049348;28;20478;-68
2021/07/24 01:05:52;;;;;;;39.33;36.43;;;20.20;79.50;;;;;;5045776;28;20479;-68
2021/07/24 01:08:19;;;;;;;38.80;35.80;;;20.30;79.30;;;;;;5042592;28;20462;-68
2021/07/24 01:10:47;;;;;;;39.50;36.33;;;20.30;79.20;;;;;;5052564;28;20455;-68
2021/07/24 01:13:16;;;;;;;38.53;35.70;;;20.30;79.10;;;;;;5047556;28;20951;-68
2021/07/24 01:15:44;;;;;;;38.30;35.57;;;20.30;79.30;;;;;;5043416;28;20485;-68
2021/07/24 01:18:13;;;;;;;39.70;36.60;;;20.20;79.50;;;;;;5045297;28;21000;-68
2021/07/24 01:20:42;;;;;;;39.70;36.87;;;20.20;79.60;;;;;;5048691;28;20465;-68
2021/07/24 01:23:12;;;;;;;37.70;35.13;;;20.20;79.70;;;;;;5038732;28;20477;-68
2021/07/24 01:25:43;;;;;;;40.03;36.83;;;20.20;79.50;;;;;;5044500;28;20918;-68
2021/07/24 01:28:10;;;;;;;38.50;35.87;;;20.20;79.60;;;;;;5046731;28;20459;-68
2021/07/24 01:30:37;;;;;;;38.27;35.37;;;20.20;79.70;;;;;;5046890;28;20481;-68
2021/07/24 01:33:04;;;;;;;38.60;35.90;;;20.10;80.10;;;;;;5045527;28;20483;-69
2021/07/24 01:35:31;;;;;;;38.97;35.83;;;20.00;80.30;;;;;;5044633;28;20840;-68
2021/07/24 01:38:07;;;;;;;38.30;35.60;;;20.00;80.40;;;;;;5044196;28;21019;-68
2021/07/24 01:40:35;;;;;;;38.23;35.23;;;20.00;80.30;;;;;;5046779;28;20475;-68
2021/07/24 01:43:02;;;;;;;39.27;36.27;;;20.10;80.10;;;;;;5038212;28;20476;-68
2021/07/24 01:45:29;;;;;;;37.87;35.17;;;20.10;80.10;;;;;;5040368;28;20467;-68
2021/07/24 01:47:56;;;;;;;38.37;35.47;;;20.10;80.10;;;;;;5046255;28;20505;-68
2021/07/24 01:53:09;;;;;;;37.23;34.73;;;19.90;80.50;;;;;;5047007;28;21002;-68
2021/07/24 01:55:43;;;;;;;37.80;35.10;;;19.90;80.30;;;;;;5037955;28;20472;-68
2021/07/24 01:58:14;;;;;;;38.63;35.83;;;20.00;80.20;;;;;;5042514;28;20467;-68
2021/07/24 02:00:43;;;;;;;37.90;34.83;;;20.00;79.80;;;;;;5046000;28;20458;-68
2021/07/24 02:03:14;;;;;;;37.80;35.10;;;20.00;79.90;;;;;;5040585;28;20478;-68
2021/07/24 02:05:45;;;;;;;38.37;35.47;;;20.00;79.90;;;;;;5044793;28;20483;-68
2021/07/24 02:08:13;;;;;;;39.30;36.30;;;20.00;80.00;;;;;;5044380;28;20469;-68
2021/07/24 02:10:42;;;;;;;39.67;36.40;;;20.00;80.00;;;;;;5044689;28;20467;-68
2021/07/24 02:13:10;;;;;;;39.00;36.10;;;20.00;80.00;;;;;;5044076;28;20945;-68
2021/07/24 02:15:37;;;;;;;39.27;36.50;;;20.00;80.10;;;;;;5029901;28;20472;-68
2021/07/24 02:18:05;;;;;;;39.03;36.20;;;20.00;80.30;;;;;;5041130;28;20940;-68
2021/07/24 02:20:32;;;;;;;38.20;35.50;;;20.00;80.20;;;;;;5045496;28;20936;-68
2021/07/24 02:22:59;;;;;;;40.33;37.40;;;19.90;80.60;;;;;;5048168;28;20482;-68
2021/07/24 02:25:26;;;;;;;38.23;35.53;;;19.80;80.90;;;;;;5051260;28;20506;-68
2021/07/24 02:27:55;;;;;;;38.77;36.00;;;19.80;81.00;;;;;;5048434;28;20459;-68
2021/07/24 02:30:22;;;;;;;39.20;36.30;;;19.80;80.80;;;;;;5041025;28;20462;-68
2021/07/24 02:32:49;;;;;;;39.00;36.37;;;19.90;80.50;;;;;;5046413;28;20465;-70
2021/07/24 02:35:16;;;;;;;38.67;35.93;;;19.90;80.60;;;;;;5038915;28;20621;-70
2021/07/24 02:37:43;;;;;;;38.70;35.70;;;19.90;80.50;;;;;;5046938;28;20455;-70
2021/07/24 02:40:10;;;;;;;39.00;36.20;;;19.90;80.50;;;;;;5048134;28;21118;-70
2021/07/24 02:42:37;;;;;;;39.27;36.30;;;19.90;80.40;;;;;;5049997;28;20816;-69
2021/07/24 02:45:07;;;;;;;38.27;35.60;;;20.00;80.40;;;;;;5039863;28;20463;-69
2021/07/24 02:47:33;;;;;;;38.77;36.07;;;20.00;80.30;;;;;;5043970;28;20972;-69
2021/07/24 02:50:00;;;;;;;38.27;35.47;;;20.00;80.30;;;;;;5044070;28;20455;-70
2021/07/24 02:52:27;;;;;;;38.77;36.03;;;20.00;80.30;;;;;;5049623;28;20455;-69
2021/07/24 02:54:54;;;;;;;37.57;34.87;;;20.00;80.30;;;;;;5055787;28;20467;-70
2021/07/24 02:57:21;;;;;;;38.93;36.03;;;20.00;79.50;;;;;;5049244;28;20483;-69
2021/07/24 02:59:48;;;;;;;38.30;35.50;;;20.10;79.20;;;;;;5048341;28;20547;-70
2021/07/24 03:02:17;;;;;;;38.87;36.00;;;20.10;79.00;;;;;;5046769;28;20550;-69
2021/07/24 03:04:44;;;;;;;38.10;35.50;;;20.10;79.10;;;;;;5040373;28;21195;-69
2021/07/24 03:07:12;;;;;;;39.60;36.40;;;20.10;79.30;;;;;;5050383;28;20489;-69
2021/07/24 03:09:39;;;;;;;37.80;34.80;;;20.10;79.40;;;;;;5047801;28;20458;-69
2021/07/24 03:12:06;;;;;;;38.70;35.70;;;20.00;79.70;;;;;;5045914;28;20455;-70
2021/07/24 03:14:33;;;;;;;38.30;35.40;;;20.00;79.90;;;;;;5047760;28;20446;-69
2021/07/24 03:17:00;;;;;;;38.93;35.93;;;19.90;80.10;;;;;;5043660;28;20479;-69
2021/07/24 03:19:29;;;;;;;39.13;36.30;;;20.00;79.80;;;;;;5046498;28;20496;-69
2021/07/24 03:21:56;;;;;;;39.00;36.13;;;20.00;79.70;;;;;;5046390;28;21229;-69
2021/07/24 03:24:22;;;;;;;39.43;36.53;;;20.00;79.70;;;;;;5043299;28;20479;-69
2021/07/24 03:26:49;;;;;;;39.83;37.00;;;20.00;79.80;;;;;;5056165;28;20896;-69
2021/07/24 03:29:16;;;;;;;39.57;36.53;;;20.00;79.80;;;;;;5050414;28;20538;-69
2021/07/24 03:31:43;;;;;;;40.43;37.47;;;20.00;79.60;;;;;;5049081;28;20459;-69
2021/07/24 03:34:10;;;;;;;40.17;37.00;;;20.00;79.70;;;;;;5050231;28;20463;-69
2021/07/24 03:36:38;;;;;;;41.30;38.20;;;20.00;79.40;;;;;;5047353;28;20477;-70
2021/07/24 03:39:05;;;;;;;38.63;35.93;;;20.00;79.70;;;;;;5046972;28;20821;-69
2021/07/24 03:41:34;;;;;;;40.77;37.53;;;19.90;80.10;;;;;;5049552;28;20455;-68
2021/07/24 03:44:01;;;;;;;38.60;35.70;;;19.90;80.40;;;;;;5047880;28;20947;-68
2021/07/24 03:46:28;;;;;;;38.33;35.50;;;19.90;80.40;;;;;;5047390;28;20517;-68
2021/07/24 03:48:55;;;;;;;39.13;36.43;;;19.90;80.40;;;;;;5046501;28;20463;-68
2021/07/24 03:51:22;;;;;;;38.47;35.77;;;20.00;80.20;;;;;;5048676;28;20455;-67
2021/07/24 03:53:50;;;;;;;37.93;35.30;;;20.00;80.00;;;;;;5046805;28;20455;-68
2021/07/24 03:56:19;;;;;;;37.73;35.00;;;20.10;79.90;;;;;;5047818;28;20474;-68
2021/07/24 03:58:49;;;;;;;40.07;36.77;;;20.10;80.00;;;;;;5048002;28;20918;-68
2021/07/24 04:01:16;;;;;;;40.80;37.90;;;20.10;80.00;;;;;;5047688;28;20459;-67
2021/07/24 04:03:43;;;;;;;40.10;36.30;;;20.10;79.70;;;;;;5045291;28;20479;-68
2021/07/24 04:06:14;;;;;;;38.47;35.87;;;20.20;79.20;;;;;;5045741;28;20578;-67
2021/07/24 04:08:41;;;;;;;39.43;36.27;;;20.10;79.40;;;;;;5044936;28;20462;-67
2021/07/24 04:11:10;;;;;;;40.10;37.10;;;20.20;79.40;;;;;;5039753;28;20851;-68
2021/07/24 04:13:38;;;;;;;38.60;35.80;;;20.30;79.10;;;;;;5042730;28;20449;-67
2021/07/24 04:16:06;;;;;;;39.77;36.90;;;20.30;78.90;;;;;;5045136;28;20577;-67
2021/07/24 04:18:34;;;;;;;39.43;36.53;;;20.30;78.80;;;;;;5047474;28;21125;-68
2021/07/24 04:21:01;;;;;;;38.97;36.03;;;20.40;78.60;;;;;;5047029;28;20468;-68
2021/07/24 04:23:28;;;;;;;40.03;37.13;;;20.40;78.70;;;;;;5043419;28;20460;-68
2021/07/24 04:25:55;;;;;;;40.00;37.13;;;20.50;78.60;;;;;;5048490;28;20479;-68
2021/07/24 04:28:24;;;;;;;39.00;36.40;;;20.50;78.50;;;;;;5049828;28;20513;-68
2021/07/24 04:30:51;;;;;;;41.10;38.30;;;20.60;78.30;;;;;;5046522;28;20964;-68
2021/07/24 04:33:18;;;;;;;40.80;37.90;;;20.50;78.20;;;;;;5045298;28;20570;-68
2021/07/24 04:35:46;;;;;;;39.97;37.27;;;20.50;78.10;;;;;;5045103;28;20479;-68
2021/07/24 04:38:13;;;;;;;42.83;39.87;;;20.60;77.90;;;;;;5041373;28;20526;-70
2021/07/24 04:40:40;;;;;;;39.10;36.47;;;20.60;77.70;;;;;;5048245;28;20497;-68
2021/07/24 04:43:07;;;;;;;42.73;39.73;;;20.70;77.70;;;;;;5044621;28;20456;-68
2021/07/24 04:45:35;;;;;;;40.30;37.60;;;20.80;77.50;;;;;;5045911;28;20980;-73
2021/07/24 04:48:04;;;;;;;39.80;37.10;;;20.70;77.60;;;;;;5047697;28;20459;-68
2021/07/24 04:50:31;;;;;;;38.70;36.00;;;20.70;77.90;;;;;;5046021;28;20475;-68
2021/07/24 04:52:58;;;;;;;37.60;35.10;;;20.70;77.70;;;;;;5045789;28;20470;-68
2021/07/24 04:55:25;;;;;;;38.33;35.83;;;20.70;77.90;;;;;;5041950;28;20569;-68
2021/07/24 04:57:52;;;;;;;38.33;35.70;;;20.60;78.10;;;;;;5045938;28;20455;-68
2021/07/24 05:00:20;;;;;;;39.13;36.43;;;20.70;78.10;;;;;;5046555;28;20476;-68
2021/07/24 05:02:48;;;;;;;38.37;35.83;;;20.60;78.30;;;;;;5044737;28;20472;-68
2021/07/24 05:05:15;;;;;;;38.53;35.63;;;20.70;78.10;;;;;;5041668;28;20478;-68
2021/07/24 05:07:42;;;;;;;37.23;34.63;;;20.60;78.30;;;;;;5046497;28;20542;-68
2021/07/24 05:10:10;;;;;;;38.87;36.27;;;20.70;78.10;;;;;;5046889;28;20459;-68
2021/07/24 05:12:37;;;;;;;38.70;35.83;;;20.70;77.70;;;;;;5046400;28;20482;-68
2021/07/24 05:15:06;;;;;;;39.00;36.00;;;20.70;78.00;;;;;;5039071;28;21023;-68
2021/07/24 05:17:32;;;;;;;40.83;38.20;;;20.60;78.10;;;;;;5047631;28;20546;-68
2021/07/24 05:20:01;;;;;;;40.67;37.97;;;20.70;77.90;;;;;;5043573;28;20455;-68
2021/07/24 05:22:28;;;;;;;37.30;34.70;;;20.70;78.20;;;;;;5046947;28;20462;-68
2021/07/24 05:24:54;;;;;;;42.13;38.90;;;20.80;78.30;;;;;;5049005;28;20481;-68
2021/07/24 05:27:21;;;;;;;40.47;37.37;;;20.90;78.10;;;;;;5048722;28;20483;-68
2021/07/24 05:29:48;;;;;;;38.17;35.47;;;21.00;77.60;;;;;;5046152;28;20471;-68
2021/07/24 05:32:16;;;;;;;45.07;41.87;;;21.00;77.70;;;;;;5047596;28;20454;-67
2021/07/24 05:34:43;;;;;;;38.87;35.97;;;21.10;77.40;;;;;;5045119;28;20504;-68
2021/07/24 05:37:11;;;;;;;39.87;37.07;;;21.30;77.10;;;;;;5041723;28;20566;-68
2021/07/24 05:39:38;;;;;;;39.00;36.30;;;21.50;76.50;;;;;;5040622;28;20464;-68
2021/07/24 05:42:05;;;;;;;37.77;35.27;;;21.70;76.10;;;;;;5042600;28;20455;-70
2021/07/24 05:44:32;;;;;;;38.83;36.00;;;21.90;75.50;;;;;;5034728;28;20476;-70
2021/07/24 05:47:02;;;;;;;41.57;38.40;;;22.00;75.00;;;;;;5045410;28;20494;-69
2021/07/24 05:49:29;;;;;;;39.37;36.57;;;22.10;74.50;;;;;;5048997;28;20462;-70
2021/07/24 05:51:56;;;;;;;38.77;36.17;;;22.30;74.20;;;;;;5055578;28;21024;-70
2021/07/24 05:54:24;;;;;;;40.10;37.40;;;22.50;73.60;;;;;;5039567;28;20474;-71
2021/07/24 05:56:51;;;;;;;43.37;39.77;;;22.70;72.60;;;;;;5039363;28;20890;-72
2021/07/24 05:59:18;;;;;;;44.07;40.97;;;22.90;72.10;;;;;;5038253;28;20552;-73
2021/07/24 06:01:45;;;;;;;43.13;39.73;;;23.10;71.30;;;;;;5040233;28;20533;-71
2021/07/24 06:04:12;;;;;;;41.77;38.97;;;23.30;71.00;;;;;;5038226;28;20482;-71
2021/07/24 06:06:39;;;;;;;40.63;37.63;;;23.30;70.90;;;;;;5042565;28;20467;-70
2021/07/24 06:09:05;;;;;;;39.93;37.23;;;23.30;70.60;;;;;;5041116;28;20481;-72
2021/07/24 06:11:35;;;;;;;41.90;39.20;;;23.20;70.70;;;;;;5045716;28;20565;-72
2021/07/24 06:14:01;;;;;;;41.57;38.60;;;23.20;70.90;;;;;;5043405;28;20956;-75
2021/07/24 06:16:28;;;;;;;40.50;37.40;;;23.10;70.90;;;;;;5042014;28;20480;-70
2021/07/24 06:18:55;;;;;;;43.10;40.07;;;23.10;71.40;;;;;;5046177;28;20885;-69
2021/07/24 06:21:22;;;;;;;39.80;36.80;;;23.10;71.00;;;;;;5039129;28;20794;-70
2021/07/24 06:23:49;;;;;;;40.60;37.73;;;23.10;71.10;;;;;;5040931;28;20465;-70
2021/07/24 06:26:16;;;;;;;40.90;38.13;;;22.90;71.50;;;;;;5042250;28;20559;-71
2021/07/24 06:28:44;;;;;;;41.30;38.30;;;22.90;71.80;;;;;;5041612;28;20466;-69
2021/07/24 06:31:11;;;;;;;41.87;38.83;;;22.80;72.50;;;;;;5044981;28;20546;-70
2021/07/24 06:33:38;;;;;;;42.43;39.23;;;22.80;72.90;;;;;;5036732;28;21005;-71
2021/07/24 06:36:05;;;;;;;39.23;36.07;;;22.90;73.80;;;;;;5040859;28;20478;-72
2021/07/24 06:38:32;;;;;;;39.33;36.33;;;22.90;74.40;;;;;;5041180;28;20548;-71
2021/07/24 06:41:00;;;;;;;41.83;38.53;;;23.00;74.20;;;;;;5045037;28;20452;-71
2021/07/24 06:43:27;;;;;;;40.47;37.67;;;23.10;74.10;;;;;;5052038;28;20470;-71
2021/07/24 06:45:55;;;;;;;40.67;37.83;;;23.20;74.00;;;;;;5041169;28;20481;-72
2021/07/24 06:48:22;;;;;;;39.30;36.60;;;23.30;73.40;;;;;;5040172;28;20882;-71
2021/07/24 06:50:49;;;;;;;38.23;35.30;;;23.50;72.70;;;;;;5046503;28;20545;-71
2021/07/24 06:53:16;;;;;;;38.03;35.53;;;23.60;72.20;;;;;;5041832;28;20467;-71
2021/07/24 06:55:43;;;;;;;40.43;37.63;;;23.70;71.80;;;;;;5042806;28;20467;-72
2021/07/24 06:58:10;;;;;;;40.57;37.87;;;23.80;71.70;;;;;;5042810;28;21055;-71
2021/07/24 07:00:36;;;;;;;43.10;40.13;;;24.00;71.00;;;;;;5039622;28;20953;-71
2021/07/24 07:03:05;;;;;;;40.40;37.60;;;24.20;70.10;;;;;;5038151;28;20474;-70
2021/07/24 07:05:32;;;;;;;40.87;38.10;;;24.30;69.60;;;;;;5040372;28;20479;-72
2021/07/24 07:08:00;;;;;;;40.00;37.07;;;24.50;69.10;;;;;;5045182;28;20956;-70
2021/07/24 07:10:27;;;;;;;40.40;37.70;;;24.70;68.30;;;;;;5048672;28;20459;-69
2021/07/24 07:12:53;;;;;;;39.30;36.67;;;24.80;66.90;;;;;;5047521;28;20454;-70
2021/07/24 07:15:24;;;;;;;40.23;37.37;;;24.90;65.40;;;;;;5049283;28;20798;-71
2021/07/24 07:17:51;;;;;;;39.30;36.70;;;25.00;65.70;;;;;;5045283;28;20529;-75
2021/07/24 07:20:19;;;;;;;38.63;36.03;;;25.00;65.40;;;;;;5047575;28;20900;-77
2021/07/24 07:22:46;;;;;;;38.90;36.30;;;25.00;65.40;;;;;;5043174;28;20562;-76
2021/07/24 07:25:14;;;;;;;40.77;37.93;;;25.00;64.10;;;;;;5046835;28;20925;-77
2021/07/24 07:27:42;;;;;;;42.30;39.40;;;24.80;64.80;;;;;;5045940;28;20463;-75
2021/07/24 07:30:10;;;;;;;41.50;38.60;;;24.60;65.40;;;;;;5045790;28;20542;-75
2021/07/24 07:32:38;;;;;;;39.60;37.00;;;24.60;65.60;;;;;;5045961;28;20501;-76
2021/07/24 07:35:06;;;;;;;39.70;37.10;;;24.60;66.50;;;;;;5048494;28;20539;-78
2021/07/24 07:37:36;;;;;;;41.73;38.70;;;24.70;66.90;;;;;;5047296;28;20465;-76
2021/07/24 07:40:06;;;;;;;41.10;38.17;;;24.80;67.30;;;;;;5049176;28;20463;-76
2021/07/24 07:42:33;;;;;;;40.63;37.77;;;24.80;67.50;;;;;;5050036;28;20534;-78
2021/07/24 07:45:01;;;;;;;40.80;38.00;;;24.90;67.30;;;;;;5047549;28;20558;-75
2021/07/24 07:47:28;;;;;;;42.43;39.63;;;25.00;67.70;;;;;;5046553;28;20459;-75
2021/07/24 07:49:56;;;;;;;40.93;37.90;;;25.10;67.70;;;;;;5041360;28;20455;-74
2021/07/24 07:52:24;;;;;;;40.97;38.17;;;25.10;68.20;;;;;;5048213;28;21254;-73
2021/07/24 07:54:52;;;;;;;43.40;40.07;;;25.20;68.20;;;;;;5047354;28;20447;-74
2021/07/24 07:57:19;;;;;;;42.70;39.60;;;25.20;68.70;;;;;;5045523;28;20507;-72
2021/07/24 07:59:46;;;;;;;44.80;41.63;;;25.20;68.90;;;;;;5042038;28;20462;-75
2021/07/24 08:02:13;;;;;;;42.03;38.87;;;25.20;69.20;;;;;;5049034;28;20510;-74
2021/07/24 08:04:41;;;;;;;42.27;39.03;;;25.10;69.20;;;;;;5047800;28;20463;-76
2021/07/24 08:07:08;;;;;;;41.73;38.60;;;25.00;69.80;;;;;;5046387;28;20482;-77
2021/07/24 08:09:34;;;;;;;43.40;39.27;;;24.90;69.90;;;;;;5054912;28;20824;-75
2021/07/24 08:12:04;;;;;;;39.80;36.57;;;24.90;70.00;;;;;;5048184;28;20454;-77
2021/07/24 08:14:31;;;;;;;41.47;38.37;;;24.80;70.00;;;;;;5049171;28;20459;-76
2021/07/24 08:16:57;;;;;;;43.83;40.63;;;24.80;69.60;;;;;;5050137;28;20863;-76
2021/07/24 08:19:26;;;;;;;43.70;40.70;;;24.80;69.30;;;;;;5045402;28;21210;-76
2021/07/24 08:21:53;;;;;;;41.60;38.37;;;24.90;69.10;;;;;;5044908;28;20462;-75
2021/07/24 08:24:20;;;;;;;41.73;38.83;;;24.90;68.30;;;;;;5036874;28;20463;-76
2021/07/24 08:26:47;;;;;;;44.13;40.70;;;24.80;68.70;;;;;;5049794;28;20483;-75
2021/07/24 08:29:17;;;;;;;41.57;38.63;;;24.90;68.60;;;;;;5045094;28;20461;-76
2021/07/24 08:31:44;;;;;;;43.40;40.37;;;24.90;68.30;;;;;;5046737;28;20471;-75
2021/07/24 08:34:11;;;;;;;43.10;40.03;;;24.80;68.20;;;;;;5043627;28;20907;-76
2021/07/24 08:36:38;;;;;;;43.10;39.87;;;24.80;68.40;;;;;;5045152;28;20479;-76
2021/07/24 08:39:05;;;;;;;41.10;38.00;;;24.90;67.60;;;;;;5049831;28;20469;-76
2021/07/24 08:41:32;;;;;;;41.23;38.33;;;25.00;68.00;;;;;;5045975;28;20467;-75
2021/07/24 08:43:59;;;;;;;43.40;40.37;;;25.10;66.80;;;;;;5043297;28;20465;-75
2021/07/24 08:46:28;;;;;;;42.13;39.03;;;25.20;67.90;;;;;;5044602;28;20489;-74
2021/07/24 08:48:55;;;;;;;43.30;40.20;;;25.40;67.80;;;;;;5039331;28;20972;-74
2021/07/24 08:51:23;;;;;;;46.73;43.03;;;25.70;67.70;;;;;;5044241;28;20558;-75
2021/07/24 08:53:51;;;;;;;42.77;39.70;;;26.10;66.60;;;;;;5046000;28;20458;-74
2021/07/24 08:56:24;;;;;;;42.70;39.90;;;26.30;65.30;;;;;;5047921;28;20471;-76
2021/07/24 08:58:56;;;;;;;41.67;38.43;;;26.20;65.00;;;;;;5049395;28;20847;-75
2021/07/24 09:01:23;;;;;;;42.90;40.00;;;26.50;63.90;;;;;;5046050;28;20451;-76
2021/07/24 09:03:52;;;;;;;44.30;40.97;;;26.80;63.20;;;;;;5039835;28;20470;-73
2021/07/24 09:06:21;;;;;;;42.90;40.00;;;26.80;62.90;;;;;;5047357;28;20479;-77
2021/07/24 09:08:50;;;;;;;45.37;41.90;;;26.70;63.20;;;;;;5047860;28;20513;-77
2021/07/24 09:11:17;;;;;;;43.83;40.43;;;26.60;63.10;;;;;;5040234;28;20457;-76
2021/07/24 09:13:44;;;;;;;44.43;41.50;;;26.30;63.60;;;;;;5040998;28;20812;-77
2021/07/24 09:16:11;;;;;;;43.30;39.93;;;26.20;64.20;;;;;;5039742;28;20471;-76
2021/07/24 09:18:42;;;;;;;43.90;40.73;;;26.40;63.90;;;;;;5039262;28;20459;-76
2021/07/24 09:21:10;;;;;;;42.77;39.93;;;26.70;63.30;;;;;;5037915;28;20452;-76
2021/07/24 09:23:40;;;;;;;44.20;41.10;;;26.80;63.30;;;;;;5042270;28;20459;-76
2021/07/24 09:26:08;;;;;;;42.67;39.67;;;27.00;63.30;;;;;;5032994;28;20494;-76
2021/07/24 09:28:35;;;;;;;42.07;39.10;;;27.20;63.10;;;;;;5032964;28;20466;-76
2021/07/24 09:31:20;;;;;;;45.33;42.03;;;27.50;62.60;;;;;;5049746;28;20553;-76
2021/07/24 09:33:50;;;;;;;46.30;43.20;;;27.70;62.50;;;;;;5036429;28;20938;-76
2021/07/24 09:36:31;;;;;;;44.63;41.43;;;27.90;62.10;;;;;;5054348;28;20473;-76
2021/07/24 09:39:11;;;;;;;43.53;40.43;;;28.10;61.50;;;;;;5042930;28;20501;-77
2021/07/24 09:41:39;;;;;;;43.93;40.63;;;28.20;61.40;;;;;;5039780;28;20459;-76
2021/07/24 09:44:06;;;;;;;43.30;40.27;;;28.20;61.40;;;;;;5038232;28;20470;-76
2021/07/24 09:46:34;;;;;;;45.33;42.23;;;28.20;61.10;;;;;;5037484;28;20493;-77
2021/07/24 09:49:12;;;;;;;44.07;41.03;;;28.20;61.40;;;;;;5039318;28;20964;-77
2021/07/24 09:51:41;;;;;;;45.50;42.10;;;28.40;60.60;;;;;;5041944;28;20466;-76
2021/07/24 09:54:25;;;;;;;44.13;41.13;;;28.50;60.10;;;;;;5038986;28;20459;-76
2021/07/24 09:56:52;;;;;;;42.80;39.80;;;28.60;60.00;;;;;;5039350;28;20471;-77
2021/07/24 09:59:22;;;;;;;46.20;42.80;;;28.60;60.00;;;;;;5042962;28;20590;-77
2021/07/24 10:02:02;;;;;;;42.50;39.60;;;28.70;59.70;;;;;;5043422;28;20462;-76
2021/07/24 10:04:30;;;;;;;43.90;40.80;;;28.70;59.70;;;;;;5047769;28;20460;-76
2021/07/24 10:07:00;;;;;;;43.67;40.70;;;28.70;60.10;;;;;;5047457;28;20573;-76
2021/07/24 10:09:32;;;;;;;42.57;39.20;;;28.80;59.50;;;;;;5045631;28;20463;-76
2021/07/24 10:12:00;;;;;;;42.63;39.70;;;28.90;59.70;;;;;;5047341;28;20532;-77
2021/07/24 10:14:28;;;;;;;40.37;37.70;;;28.80;59.00;;;;;;5045090;28;20957;-76
2021/07/24 10:16:57;;;;;;;42.47;39.57;;;29.00;58.80;;;;;;5037145;28;20577;-76
2021/07/24 10:19:25;;;;;;;42.33;39.30;;;29.00;58.90;;;;;;5043364;28;20489;-76
2021/07/24 10:21:53;;;;;;;41.10;38.50;;;29.30;58.00;;;;;;5043768;28;20447;-76
2021/07/24 10:24:22;;;;;;;41.93;38.83;;;29.50;57.40;;;;;;5047274;28;20447;-76
2021/07/24 10:26:52;;;;;;;43.17;40.27;;;29.70;56.40;;;;;;5052466;28;20483;-73
2021/07/24 10:29:26;;;;;;;41.27;38.57;;;30.00;56.40;;;;;;5046433;28;20463;-73
2021/07/24 10:32:04;;;;;;;41.40;38.63;;;30.10;55.50;;;;;;5048878;28;20446;-73
2021/07/24 10:34:34;;;;;;;41.13;38.20;;;30.20;55.20;;;;;;5047477;28;20450;-73
2021/07/24 10:37:32;;;;;;;41.53;38.73;;;30.10;54.30;;;;;;5044910;28;20520;-73
2021/07/24 10:40:32;;;;;;;41.00;38.03;;;30.10;54.60;;;;;;5040255;28;20546;-72
2021/07/24 10:43:03;;;;;;;41.83;39.20;;;30.30;54.50;;;;;;5039224;28;20975;-72
2021/07/24 10:45:51;;;;;;;41.17;38.20;;;30.30;54.80;;;;;;5051225;28;20849;-72
2021/07/24 10:48:21;;;;;;;42.40;39.63;;;30.30;54.60;;;;;;5051341;28;20982;-72
2021/07/24 10:51:16;;;;;;;40.17;37.57;;;30.40;55.10;;;;;;5050864;28;20485;-72
2021/07/24 10:54:06;;;;;;;45.07;41.90;;;30.40;55.30;;;;;;5049788;28;20843;-72
2021/07/24 10:56:41;;;;;;;41.33;38.30;;;30.40;55.20;;;;;;5051707;28;20524;-72
2021/07/24 10:59:24;;;;;;;40.30;37.40;;;30.40;54.90;;;;;;5050518;28;20952;-72
2021/07/24 11:01:52;;;;;;;39.67;36.80;;;30.40;55.30;;;;;;5049519;28;20450;-72
2021/07/24 11:04:41;;;;;;;42.47;39.37;;;30.50;55.40;;;;;;5048707;28;21004;-73
2021/07/24 11:07:43;;;;;;;42.63;39.90;;;30.60;55.90;;;;;;5049603;28;20501;-73
2021/07/24 11:10:10;;;;;;;42.63;39.70;;;30.60;55.50;;;;;;5050957;28;20456;-73
2021/07/24 11:12:39;;;;;;;43.50;40.70;;;30.60;55.30;;;;;;5051620;28;20470;-73
2021/07/24 11:15:09;;;;;;;44.27;41.37;;;30.70;55.30;;;;;;5049746;28;20459;-73
2021/07/24 11:17:36;;;;;;;43.30;40.40;;;30.90;55.30;;;;;;5045324;28;20463;-73
2021/07/24 11:20:47;;;;;;;40.37;37.47;;;31.20;53.70;;;;;;5043836;28;20450;-72
2021/07/24 11:23:14;;;;;;;39.10;36.40;;;31.20;50.90;;;;;;5051188;28;20851;-72
2021/07/24 11:25:42;;;;;;;38.40;35.80;;;31.20;50.10;;;;;;5047370;28;20483;-73
2021/07/24 11:28:15;;;;;;;37.43;34.70;;;31.20;49.70;;;;;;5050736;28;20541;-72
2021/07/24 11:30:44;;;;;;;37.87;35.37;;;31.10;50.10;;;;;;5049584;28;20463;-72
2021/07/24 11:33:17;;;;;;;38.33;35.73;;;31.00;50.90;;;;;;5042896;28;20538;-72
2021/07/24 11:35:45;;;;;;;37.27;34.97;;;31.00;50.40;;;;;;5050345;28;20490;-72
2021/07/24 11:38:25;;;;;;;39.90;37.40;;;30.90;50.80;;;;;;5045748;28;20545;-72
2021/07/24 11:41:02;;;;;;;39.17;36.70;;;30.90;50.60;;;;;;5049387;28;20467;-72
2021/07/24 11:43:30;;;;;;;37.00;34.70;;;30.70;50.40;;;;;;5032247;28;20965;-72
2021/07/24 11:46:02;;;;;;;41.33;38.53;;;30.60;51.30;;;;;;5050586;28;21030;-72
2021/07/24 11:48:29;;;;;;;38.07;35.53;;;30.40;52.00;;;;;;5047426;28;20471;-72
2021/07/24 11:51:08;;;;;;;41.60;38.50;;;30.30;52.00;;;;;;5048813;28;20816;-72
2021/07/24 11:53:35;;;;;;;38.43;36.03;;;30.30;52.00;;;;;;5047231;28;20998;-72
2021/07/24 11:56:03;;;;;;;40.93;38.23;;;30.20;51.50;;;;;;5049869;28;20840;-72
2021/07/24 11:58:31;;;;;;;36.53;34.10;;;30.10;52.20;;;;;;5050718;28;20513;-72
2021/07/24 12:01:00;;;;;;;39.60;37.00;;;30.10;52.00;;;;;;5050091;28;20455;-72
2021/07/24 12:03:30;;;;;;;39.67;37.20;;;30.10;51.80;;;;;;5045599;28;20566;-72
2021/07/24 12:06:09;;;;;;;40.17;37.40;;;30.20;52.90;;;;;;5050406;28;20505;-73
2021/07/24 12:08:37;;;;;;;36.70;34.20;;;30.30;52.60;;;;;;5036276;28;20551;-73
2021/07/24 12:11:04;;;;;;;38.90;36.40;;;30.50;52.40;;;;;;5050177;28;20960;-73
2021/07/24 12:13:31;;;;;;;38.80;36.20;;;30.70;51.90;;;;;;5048692;28;20447;-73
2021/07/24 12:16:04;;;;;;;38.27;35.60;;;30.90;51.70;;;;;;5047773;28;20474;-73
2021/07/24 12:18:39;;;;;;;38.10;35.50;;;30.90;51.30;;;;;;5047610;28;20529;-76
2021/07/24 12:21:11;;;;;;;38.27;35.67;;;30.80;52.50;;;;;;5049108;28;21005;-75
2021/07/24 12:23:43;;;;;;;35.33;33.13;;;30.80;53.10;;;;;;5049745;28;20478;-75
2021/07/24 12:26:12;;;;;;;36.60;34.20;;;30.70;52.90;;;;;;5045186;28;20474;-75
2021/07/24 12:28:41;;;;;;;35.67;33.37;;;30.80;52.20;;;;;;5045532;28;20465;-74
2021/07/24 12:31:25;;;;;;;41.07;38.27;;;30.80;52.10;;;;;;5041001;28;20463;-74
2021/07/24 12:33:55;;;;;;;39.80;37.20;;;30.90;52.40;;;;;;5044878;28;20455;-74
2021/07/24 12:36:23;;;;;;;39.37;36.60;;;31.00;52.20;;;;;;5049832;28;20856;-72
2021/07/24 12:38:52;;;;;;;37.03;34.53;;;31.20;51.50;;;;;;5045762;28;20473;-72
2021/07/24 12:41:29;;;;;;;40.93;38.33;;;31.40;51.00;;;;;;5046637;28;20455;-73